createdAt,value
2022-11-29T00:01:23.888Z,101823.84
2022-11-29T00:03:51.891Z,101827.34
2022-11-29T00:06:21.488Z,101814.59
2022-11-29T00:08:49.367Z,101802.69
2022-11-29T00:11:40.200Z,101825.97
2022-11-29T00:14:09.827Z,101799.50
2022-11-29T00:16:36.906Z,101831.38
2022-11-29T00:19:04.377Z,101826.25
2022-11-29T00:21:31.367Z,101827.19
2022-11-29T00:23:58.506Z,101815.66
2022-11-29T00:26:25.586Z,101816.91
2022-11-29T00:28:54.098Z,101791.22
2022-11-29T00:31:32.016Z,101774.44
2022-11-29T00:34:03.919Z,101823.06
2022-11-29T00:36:31.230Z,101820.22
2022-11-29T00:38:58.473Z,101808.56
2022-11-29T00:41:25.614Z,101813.44
2022-11-29T00:43:53.071Z,101789.22
2022-11-29T00:46:20.196Z,101793.31
2022-11-29T00:48:47.316Z,101812.97
2022-11-29T00:51:14.462Z,101814.47
2022-11-29T00:53:41.428Z,101810.22
2022-11-29T00:56:08.791Z,101796.03
2022-11-29T00:58:36.800Z,101810.22
2022-11-29T01:01:04.315Z,101808.53
2022-11-29T01:03:31.697Z,101796.94
2022-11-29T01:06:08.883Z,101811.44
2022-11-29T01:08:36.534Z,101803.88
2022-11-29T01:11:12.512Z,101783.94
2022-11-29T01:13:39.998Z,101809.31
2022-11-29T01:16:07.454Z,101775.16
2022-11-29T01:18:35.062Z,101802.53
2022-11-29T01:21:06.520Z,101798.88
2022-11-29T01:23:34.893Z,101804.16
2022-11-29T01:26:09.117Z,101734.66
2022-11-29T01:28:37.194Z,101804.78
2022-11-29T01:31:08.931Z,101802.53
2022-11-29T01:33:37.293Z,101807.50
2022-11-29T01:36:05.722Z,101804.16
2022-11-29T01:38:33.235Z,101783.16
2022-11-29T01:41:28.529Z,101786.81
2022-11-29T01:44:03.655Z,101797.69
2022-11-29T01:46:39.481Z,101783.00
2022-11-29T01:49:17.470Z,101761.84
2022-11-29T01:52:19.348Z,101800.69
2022-11-29T01:54:51.114Z,101767.25
2022-11-29T01:57:20.340Z,101789.03
2022-11-29T01:59:52.580Z,101781.16
2022-11-29T02:02:31.199Z,101798.97
2022-11-29T02:05:00.587Z,101800.16
2022-11-29T02:07:27.693Z,101789.59
2022-11-29T02:09:54.734Z,101817.69
2022-11-29T02:12:27.533Z,101808.13
2022-11-29T02:15:49.749Z,101801.31
2022-11-29T02:18:33.269Z,101810.97
2022-11-29T02:21:11.463Z,101811.47
2022-11-29T02:24:03.822Z,101765.94
2022-11-29T02:26:57.929Z,101762.66
2022-11-29T02:29:55.986Z,101818.44
2022-11-29T02:32:38.016Z,101815.88
2022-11-29T02:35:10.918Z,101815.22
2022-11-29T02:37:50.043Z,101817.94
2022-11-29T02:40:25.865Z,101814.50
2022-11-29T02:43:11.549Z,101815.22
2022-11-29T02:46:03.233Z,101816.00
2022-11-29T02:48:45.412Z,101815.06
2022-11-29T02:51:23.356Z,101818.38
2022-11-29T02:53:53.596Z,101814.88
2022-11-29T02:56:20.559Z,101821.97
2022-11-29T02:58:55.917Z,101826.59
2022-11-29T03:01:33.961Z,101824.19
2022-11-29T03:04:20.552Z,101827.81
2022-11-29T03:07:13.348Z,101835.91
2022-11-29T03:10:32.699Z,101823.53
2022-11-29T03:13:02.306Z,101829.25
2022-11-29T03:15:33.590Z,101808.56
2022-11-29T03:18:25.442Z,101823.19
2022-11-29T03:20:52.469Z,101826.53
2022-11-29T03:23:37.295Z,101830.00
2022-11-29T03:26:24.791Z,101834.06
2022-11-29T03:28:56.426Z,101803.03
2022-11-29T03:31:35.662Z,101827.09
2022-11-29T03:34:41.038Z,101828.56
2022-11-29T03:37:49.410Z,101833.34
2022-11-29T03:40:21.679Z,101826.59
2022-11-29T03:42:56.558Z,101832.47
2022-11-29T03:45:39.668Z,101825.81
2022-11-29T03:48:22.071Z,101836.34
2022-11-29T03:51:01.306Z,101842.50
2022-11-29T03:53:34.326Z,101855.78
2022-11-29T03:56:03.543Z,101847.78
2022-11-29T03:58:33.316Z,101851.09
2022-11-29T04:01:30.645Z,101856.47
2022-11-29T04:04:03.465Z,101848.16
2022-11-29T04:07:00.868Z,101858.88
2022-11-29T04:09:30.815Z,101850.47
2022-11-29T04:12:13.048Z,101865.84
2022-11-29T04:14:52.199Z,101870.78
2022-11-29T04:17:27.963Z,101853.75
2022-11-29T04:20:10.691Z,101867.13
2022-11-29T04:22:54.102Z,101865.06
2022-11-29T04:25:39.729Z,101868.69
2022-11-29T04:28:36.626Z,101859.53
2022-11-29T04:31:24.759Z,101860.28
2022-11-29T04:34:16.410Z,101861.34
2022-11-29T04:37:18.677Z,101856.53
2022-11-29T04:40:47.114Z,101852.91
2022-11-29T04:43:13.997Z,101863.47
2022-11-29T04:46:14.888Z,101862.44
2022-11-29T04:49:07.397Z,101855.75
2022-11-29T04:51:52.217Z,101867.06
2022-11-29T04:54:49.414Z,101873.81
2022-11-29T04:57:34.541Z,101878.94
2022-11-29T05:00:07.411Z,101879.88
2022-11-29T05:02:43.600Z,101889.53
2022-11-29T05:05:31.685Z,101893.91
2022-11-29T05:08:17.590Z,101895.06
2022-11-29T05:11:26.264Z,101906.50
2022-11-29T05:14:18.936Z,101891.03
2022-11-29T05:17:09.707Z,101909.13
2022-11-29T05:19:58.585Z,101906.97
2022-11-29T05:22:47.638Z,101901.56
2022-11-29T05:25:37.460Z,101909.25
2022-11-29T05:28:16.761Z,101911.63
2022-11-29T05:30:43.720Z,101912.97
2022-11-29T05:33:28.919Z,101919.56
2022-11-29T05:36:08.794Z,101894.13
2022-11-29T05:39:01.338Z,101924.91
2022-11-29T05:41:52.734Z,101929.88
2022-11-29T05:44:41.516Z,101928.47
2022-11-29T05:47:10.312Z,101936.56
2022-11-29T05:49:50.200Z,101930.72
2022-11-29T05:52:42.368Z,101932.94
2022-11-29T05:55:51.907Z,101932.94
2022-11-29T05:58:40.141Z,101935.16
2022-11-29T06:01:22.891Z,101935.91
2022-11-29T06:04:28.868Z,101933.00
2022-11-29T06:07:04.591Z,101921.38
2022-11-29T06:10:01.620Z,101938.63
2022-11-29T06:12:37.529Z,101939.03
2022-11-29T06:15:23.570Z,101934.50
2022-11-29T06:17:55.317Z,101945.63
2022-11-29T06:21:14.874Z,101942.31
2022-11-29T06:23:59.899Z,101951.84
2022-11-29T06:26:42.643Z,101959.16
2022-11-29T06:29:41.954Z,101972.34
2022-11-29T06:32:42.386Z,101971.28
2022-11-29T06:35:33.033Z,101972.00
2022-11-29T06:38:06.795Z,101954.50
2022-11-29T06:40:34.034Z,101966.91
2022-11-29T06:43:01.247Z,101968.75
2022-11-29T06:45:28.637Z,101974.16
2022-11-29T06:48:03.789Z,101914.22
2022-11-29T06:50:45.480Z,101976.00
2022-11-29T06:53:33.698Z,101965.78
2022-11-29T06:56:21.207Z,101980.78
2022-11-29T06:59:04.416Z,101981.66
2022-11-29T07:01:37.632Z,101976.50
2022-11-29T07:04:15.763Z,101973.03
2022-11-29T07:06:43.177Z,101951.38
2022-11-29T07:09:46.639Z,101957.75
2022-11-29T07:12:14.380Z,101954.63
2022-11-29T07:14:41.670Z,101978.59
2022-11-29T07:17:20.602Z,101987.13
2022-11-29T07:20:12.365Z,101973.31
2022-11-29T07:23:03.367Z,101934.16
2022-11-29T07:26:02.827Z,101973.09
2022-11-29T07:28:48.583Z,101980.03
2022-11-29T07:31:34.795Z,101985.22
2022-11-29T07:34:22.288Z,101972.41
2022-11-29T07:36:52.179Z,101984.06
2022-11-29T07:39:30.680Z,101989.94
2022-11-29T07:42:10.833Z,101980.19
2022-11-29T07:44:37.615Z,101981.66
2022-11-29T07:47:05.058Z,101938.09
2022-11-29T07:49:32.462Z,101982.44
2022-11-29T07:51:59.505Z,101984.84
2022-11-29T07:54:26.880Z,101964.84
2022-11-29T07:56:53.982Z,101981.75
2022-11-29T07:59:21.056Z,101972.47
2022-11-29T08:01:48.681Z,101976.44
2022-11-29T08:04:19.090Z,101953.03
2022-11-29T08:06:46.133Z,101953.38
2022-11-29T08:09:13.581Z,101974.47
2022-11-29T08:11:40.689Z,101977.03
2022-11-29T08:14:07.859Z,101992.28
2022-11-29T08:16:34.869Z,101934.03
2022-11-29T08:19:01.989Z,101939.50
2022-11-29T08:21:28.901Z,101984.81
2022-11-29T08:23:55.973Z,101977.28
2022-11-29T08:26:26.885Z,101990.28
2022-11-29T08:28:58.100Z,101961.03
2022-11-29T08:31:26.433Z,101983.75
2022-11-29T08:33:53.574Z,101979.03
2022-11-29T08:36:21.078Z,101935.75
2022-11-29T08:38:48.389Z,101971.19
2022-11-29T08:41:17.477Z,101949.22
2022-11-29T08:43:44.789Z,101982.34
2022-11-29T08:46:18.035Z,101937.91
2022-11-29T08:48:46.710Z,101976.56
2022-11-29T08:51:14.190Z,101981.53
2022-11-29T08:53:46.444Z,101968.31
2022-11-29T08:59:06.152Z,101976.72
2022-11-29T09:01:33.251Z,101970.13
2022-11-29T09:04:00.204Z,101977.28
2022-11-29T09:06:31.892Z,101954.50
2022-11-29T09:09:00.525Z,101967.47
2022-11-29T09:11:29.449Z,101965.97
2022-11-29T09:13:59.931Z,101960.84
2022-11-29T09:16:30.974Z,101942.75
2022-11-29T09:18:58.068Z,101985.78
2022-11-29T09:21:27.913Z,101965.06
2022-11-29T09:23:59.344Z,101990.66
2022-11-29T09:26:29.357Z,101991.56
2022-11-29T09:28:58.425Z,101990.66
2022-11-29T09:31:27.269Z,101984.63
2022-11-29T09:33:55.079Z,101962.16
2022-11-29T09:36:27.853Z,101955.22
2022-11-29T09:38:55.702Z,101973.44
2022-11-29T09:41:22.627Z,101979.50
2022-11-29T09:44:17.117Z,101948.34
2022-11-29T09:47:17.637Z,101967.69
2022-11-29T09:49:56.801Z,101964.44
2022-11-29T09:52:32.846Z,101970.44
2022-11-29T09:55:10.416Z,101949.16
2022-11-29T09:57:38.710Z,101910.25
2022-11-29T10:00:14.456Z,101938.56
2022-11-29T10:02:47.928Z,101969.56
2022-11-29T10:05:28.603Z,101958.97
2022-11-29T10:08:06.853Z,101950.94
2022-11-29T10:10:41.734Z,101900.56
2022-11-29T10:13:11.701Z,101964.75
2022-11-29T10:15:44.582Z,101953.75
2022-11-29T10:18:22.208Z,101963.59
2022-11-29T10:20:51.915Z,101967.13
2022-11-29T10:23:29.850Z,101962.63
2022-11-29T10:25:58.191Z,101960.25
2022-11-29T10:28:30.771Z,101952.88
2022-11-29T10:31:14.360Z,101937.81
2022-11-29T10:33:42.101Z,101942.09
2022-11-29T10:36:35.296Z,101953.72
2022-11-29T10:39:22.385Z,101936.00
2022-11-29T10:42:04.008Z,101913.56
2022-11-29T10:44:33.405Z,101914.44
2022-11-29T10:47:09.443Z,101930.53
2022-11-29T10:49:40.280Z,101957.72
2022-11-29T10:52:19.609Z,101933.72
2022-11-29T10:54:50.098Z,101961.63
2022-11-29T10:57:22.357Z,101957.25
2022-11-29T11:00:09.957Z,101960.91
2022-11-29T11:02:38.097Z,101950.75
2022-11-29T11:05:18.602Z,101946.94
2022-11-29T11:07:47.580Z,101948.84
2022-11-29T11:10:27.315Z,101945.22
2022-11-29T11:13:08.204Z,101941.66
2022-11-29T11:15:35.531Z,101965.47
2022-11-29T11:18:05.691Z,101950.69
2022-11-29T11:20:37.470Z,101958.22
2022-11-29T11:23:08.144Z,101959.69
2022-11-29T11:25:39.725Z,101953.25
2022-11-29T11:28:22.389Z,101961.03
2022-11-29T11:31:05.770Z,101901.41
2022-11-29T11:33:42.432Z,101956.66
2022-11-29T11:36:21.282Z,101937.47
2022-11-29T11:39:18.502Z,101965.66
2022-11-29T11:42:05.410Z,101958.03
2022-11-29T11:44:47.563Z,101969.13
2022-11-29T11:47:24.464Z,101916.72
2022-11-29T11:50:00.301Z,101967.56
2022-11-29T11:52:33.797Z,101926.94
2022-11-29T11:55:18.624Z,101934.91
2022-11-29T11:57:45.796Z,101961.28
2022-11-29T12:01:03.493Z,101967.22
2022-11-29T12:04:11.733Z,101975.97
2022-11-29T12:06:47.567Z,101950.13
2022-11-29T12:09:35.170Z,101961.69
2022-11-29T12:12:13.929Z,101966.13
2022-11-29T12:14:59.655Z,101973.91
2022-11-29T12:17:40.163Z,101968.09
2022-11-29T12:20:29.515Z,101935.38
2022-11-29T12:23:03.462Z,101982.75
2022-11-29T12:25:46.432Z,101963.56
2022-11-29T12:28:20.067Z,101972.69
2022-11-29T12:31:33.754Z,101974.66
2022-11-29T12:34:22.422Z,101977.22
2022-11-29T12:37:22.427Z,101962.91
2022-11-29T12:40:24.351Z,101972.56
2022-11-29T12:43:18.924Z,101983.19
2022-11-29T12:45:49.492Z,101996.81
2022-11-29T12:48:29.851Z,101988.84
2022-11-29T12:51:05.979Z,101985.16
2022-11-29T12:53:38.694Z,101989.25
2022-11-29T12:56:28.247Z,101986.63
2022-11-29T12:59:14.098Z,102002.34
2022-11-29T13:02:02.979Z,101998.03
2022-11-29T13:04:39.748Z,101926.75
2022-11-29T13:07:23.758Z,101982.47
2022-11-29T13:09:57.206Z,102000.72
2022-11-29T13:12:40.783Z,101981.84
2022-11-29T13:15:17.064Z,101988.78
2022-11-29T13:18:00.744Z,101963.00
2022-11-29T13:20:58.027Z,101949.53
2022-11-29T13:26:38.241Z,101990.50
2022-11-29T13:29:07.818Z,101993.78
2022-11-29T13:31:35.710Z,101974.69
2022-11-29T13:34:15.517Z,101986.38
2022-11-29T13:36:54.343Z,101985.28
2022-11-29T13:39:39.582Z,101993.66
2022-11-29T13:42:31.799Z,101945.59
2022-11-29T13:45:07.657Z,101996.97
2022-11-29T13:47:53.256Z,101962.03
2022-11-29T13:50:40.748Z,102001.00
2022-11-29T13:53:15.207Z,101996.66
2022-11-29T13:56:15.323Z,101991.53
2022-11-29T13:58:42.231Z,102003.19
2022-11-29T14:01:12.814Z,102001.19
2022-11-29T14:03:43.329Z,102002.13
2022-11-29T14:06:15.469Z,102003.22
2022-11-29T14:09:24.048Z,102004.31
2022-11-29T14:12:19.019Z,102002.66
2022-11-29T14:15:03.305Z,102001.41
2022-11-29T14:17:51.157Z,101990.84
2022-11-29T14:20:24.983Z,101992.31
2022-11-29T14:23:07.843Z,101990.13
2022-11-29T14:25:52.941Z,101977.19
2022-11-29T14:28:22.859Z,101949.56
2022-11-29T14:30:54.738Z,101989.41
2022-11-29T14:33:42.301Z,101970.50
2022-11-29T14:36:15.390Z,101980.31
2022-11-29T14:38:48.137Z,101992.00
2022-11-29T14:41:34.450Z,101993.44
2022-11-29T14:44:28.319Z,101994.91
2022-11-29T14:47:02.736Z,102002.19
2022-11-29T14:49:36.302Z,101981.78
2022-11-29T14:52:16.155Z,102005.81
2022-11-29T14:55:02.338Z,102002.19
2022-11-29T14:57:57.870Z,102005.44
2022-11-29T15:00:30.901Z,102004.19
2022-11-29T15:03:09.090Z,101901.66
2022-11-29T15:05:38.914Z,101988.50
2022-11-29T15:08:09.728Z,101992.72
2022-11-29T15:10:42.449Z,101948.81
2022-11-29T15:13:13.844Z,101950.09
2022-11-29T15:15:49.891Z,101987.41
2022-11-29T15:18:30.400Z,101994.88
2022-11-29T15:21:24.329Z,101996.34
2022-11-29T15:23:59.927Z,101948.28
2022-11-29T15:26:27.028Z,101946.09
2022-11-29T15:28:54.301Z,101993.03
2022-11-29T15:31:21.919Z,101974.09
2022-11-29T15:33:50.736Z,101986.13
2022-11-29T15:36:20.747Z,102003.97
2022-11-29T15:38:50.448Z,102003.09
2022-11-29T15:41:35.197Z,102002.16
2022-11-29T15:44:19.766Z,101947.31
2022-11-29T15:46:46.708Z,101968.06
2022-11-29T15:49:34.584Z,102011.97
2022-11-29T15:52:07.828Z,102006.88
2022-11-29T15:54:42.100Z,101991.94
2022-11-29T15:57:18.913Z,101997.22
2022-11-29T15:59:53.139Z,101997.38
2022-11-29T16:02:25.940Z,101990.47
2022-11-29T16:04:57.266Z,101954.59
2022-11-29T16:07:26.922Z,101980.28
2022-11-29T16:09:59.184Z,101987.94
2022-11-29T16:12:26.774Z,101931.47
2022-11-29T16:15:01.454Z,101987.94
2022-11-29T16:17:34.072Z,101977.38
2022-11-29T16:20:26.940Z,101961.16
2022-11-29T16:23:14.511Z,101989.03
2022-11-29T16:26:15.734Z,101956.97
2022-11-29T16:28:48.250Z,101979.91
2022-11-29T16:31:24.134Z,101967.88
2022-11-29T16:33:52.866Z,101922.72
2022-11-29T16:36:26.998Z,101953.31
2022-11-29T16:39:07.453Z,101988.09
2022-11-29T16:41:37.932Z,101984.81
2022-11-29T16:44:06.966Z,101974.44
2022-11-29T16:46:40.676Z,101967.16
2022-11-29T16:49:34.708Z,101985.75
2022-11-29T16:52:04.277Z,101971.88
2022-11-29T16:54:34.317Z,101994.09
2022-11-29T16:57:07.092Z,101992.63
2022-11-29T16:59:35.491Z,101995.72
2022-11-29T17:02:02.999Z,101986.06
2022-11-29T17:04:30.077Z,101991.91
2022-11-29T17:06:57.894Z,101947.41
2022-11-29T17:09:33.281Z,101974.41
2022-11-29T17:12:02.225Z,101963.66
2022-11-29T17:14:30.017Z,101962.38
2022-11-29T17:16:57.675Z,101970.78
2022-11-29T17:19:28.980Z,101988.25
2022-11-29T17:21:56.238Z,101957.28
2022-11-29T17:24:24.176Z,101986.44
2022-11-29T17:26:51.708Z,101984.06
2022-11-29T17:29:19.134Z,101986.44
2022-11-29T17:31:47.211Z,101984.78
2022-11-29T17:34:14.257Z,101983.47
2022-11-29T17:36:41.247Z,101985.69
2022-11-29T17:39:08.843Z,101971.66
2022-11-29T17:41:36.003Z,101987.69
2022-11-29T17:44:03.312Z,101975.84
2022-11-29T17:46:32.148Z,101971.84
2022-11-29T17:49:01.459Z,101974.38
2022-11-29T17:54:16.396Z,101987.13
2022-11-29T17:56:43.412Z,101990.94
2022-11-29T17:59:10.454Z,101980.91
2022-11-29T18:01:37.744Z,101992.56
2022-11-29T18:04:06.347Z,101991.66
2022-11-29T18:06:40.716Z,101990.75
2022-11-29T18:09:10.339Z,101979.81
2022-11-29T18:11:47.687Z,101978.16
2022-11-29T18:14:19.168Z,101998.19
2022-11-29T18:16:46.608Z,101999.09
2022-11-29T18:19:19.106Z,101983.06
2022-11-29T18:21:46.795Z,102002.00
2022-11-29T18:24:13.978Z,101994.72
2022-11-29T18:26:41.868Z,101990.00
2022-11-29T18:29:10.163Z,101959.22
2022-11-29T18:31:39.972Z,101996.91
2022-11-29T18:34:11.802Z,102004.34
2022-11-29T18:36:45.282Z,101998.00
2022-11-29T18:39:16.590Z,102002.00
2022-11-29T18:41:47.088Z,101950.97
2022-11-29T18:44:16.779Z,102003.28
2022-11-29T18:46:45.431Z,101971.03
2022-11-29T18:49:15.049Z,101989.63
2022-11-29T18:51:45.041Z,101995.09
2022-11-29T18:54:13.273Z,101988.88
2022-11-29T18:56:40.982Z,101985.59
2022-11-29T18:59:11.344Z,101985.59
2022-11-29T19:01:43.400Z,101952.06
2022-11-29T19:04:14.251Z,101981.78
2022-11-29T19:06:42.663Z,101998.00
2022-11-29T19:09:33.857Z,101995.97
2022-11-29T19:12:04.079Z,101992.13
2022-11-29T19:14:34.573Z,101993.19
2022-11-29T19:17:02.350Z,101981.88
2022-11-29T19:19:36.810Z,101967.09
2022-11-29T19:22:06.635Z,101981.16
2022-11-29T19:24:36.624Z,101968.94
2022-11-29T19:27:04.865Z,101982.56
2022-11-29T19:29:38.183Z,101927.59
2022-11-29T19:32:08.581Z,101973.84
2022-11-29T19:34:35.870Z,101968.31
2022-11-29T19:37:03.097Z,101992.75
2022-11-29T19:39:34.131Z,101985.47
2022-11-29T19:42:01.219Z,101972.38
2022-11-29T19:44:30.120Z,101992.34
2022-11-29T19:46:59.298Z,102001.50
2022-11-29T19:49:26.337Z,101969.06
2022-11-29T19:51:53.797Z,101983.06
2022-11-29T19:54:20.988Z,101999.31
2022-11-29T19:56:48.151Z,102001.13
2022-11-29T19:59:16.348Z,101992.75
2022-11-29T20:01:43.841Z,101967.38
2022-11-29T20:04:13.065Z,101981.03
2022-11-29T20:06:40.484Z,101998.56
2022-11-29T20:09:07.998Z,101997.63
2022-11-29T20:11:35.468Z,101974.16
2022-11-29T20:14:07.490Z,102002.94
2022-11-29T20:16:35.470Z,102008.03
2022-11-29T20:19:02.654Z,102005.28
2022-11-29T20:21:32.509Z,101984.72
2022-11-29T20:24:05.657Z,102008.03
2022-11-29T20:26:35.309Z,101997.84
2022-11-29T20:29:07.373Z,102008.75
2022-11-29T20:31:36.255Z,101959.38
2022-11-29T20:34:06.751Z,101990.88
2022-11-29T20:36:43.078Z,101986.66
2022-11-29T20:39:29.043Z,102002.91
2022-11-29T20:41:56.056Z,102003.94
2022-11-29T20:44:44.390Z,101995.56
2022-11-29T20:47:23.225Z,101991.41
2022-11-29T20:49:50.498Z,101986.63
2022-11-29T20:52:49.345Z,101996.97
2022-11-29T20:55:16.378Z,101980.25
2022-11-29T20:57:48.865Z,101961.09
2022-11-29T21:00:18.953Z,102006.66
2022-11-29T21:02:46.278Z,101984.66
2022-11-29T21:05:19.786Z,101973.72
2022-11-29T21:07:46.938Z,101982.06
2022-11-29T21:10:16.831Z,101978.66
2022-11-29T21:12:47.581Z,101990.13
2022-11-29T21:15:18.067Z,101957.16
2022-11-29T21:17:45.937Z,101995.56
2022-11-29T21:20:26.880Z,101988.31
2022-11-29T21:23:22.495Z,102009.75
2022-11-29T21:26:05.212Z,102016.66
2022-11-29T21:28:47.075Z,101988.44
2022-11-29T21:31:17.535Z,101993.91
2022-11-29T21:33:48.051Z,101999.94
2022-11-29T21:36:15.377Z,102019.53
2022-11-29T21:38:43.015Z,102021.00
2022-11-29T21:41:11.020Z,102023.34
2022-11-29T21:44:05.574Z,101994.38
2022-11-29T21:46:28.923Z,102022.63
2022-11-29T21:48:58.218Z,102000.47
2022-11-29T21:51:25.244Z,102021.63
2022-11-29T21:53:52.260Z,102027.06
2022-11-29T21:56:22.021Z,102005.53
2022-11-29T21:58:51.495Z,101986.94
2022-11-29T22:01:20.416Z,102003.00
2022-11-29T22:03:48.204Z,102012.09
2022-11-29T22:06:20.611Z,101965.44
2022-11-29T22:08:48.485Z,102029.03
2022-11-29T22:11:32.440Z,102019.41
2022-11-29T22:14:14.038Z,102023.19
2022-11-29T22:16:55.250Z,102017.84
2022-11-29T22:19:33.792Z,102012.75
2022-11-29T22:22:03.912Z,102015.50
2022-11-29T22:24:36.481Z,101984.63
2022-11-29T22:27:03.795Z,102026.19
2022-11-29T22:29:30.804Z,102021.44
2022-11-29T22:31:59.456Z,102020.72
2022-11-29T22:34:27.674Z,102010.47
2022-11-29T22:36:55.565Z,102022.88
2022-11-29T22:39:24.074Z,102009.25
2022-11-29T22:41:54.794Z,102015.75
2022-11-29T22:44:23.657Z,102033.44
2022-11-29T22:46:51.300Z,102012.69
2022-11-29T22:49:18.329Z,102007.56
2022-11-29T22:51:45.254Z,102026.94
2022-11-29T22:54:15.551Z,102044.72
2022-11-29T22:56:44.009Z,102018.09
2022-11-29T22:59:11.049Z,101973.53
2022-11-29T23:01:39.656Z,102038.31
2022-11-29T23:04:10.931Z,102038.84
2022-11-29T23:06:41.190Z,102040.28
2022-11-29T23:09:12.225Z,101992.06
2022-11-29T23:11:39.447Z,102048.25
2022-11-29T23:14:06.529Z,102032.91
2022-11-29T23:16:34.188Z,102033.97
2022-11-29T23:19:02.704Z,102006.22
2022-11-29T23:21:35.363Z,102053.84
2022-11-29T23:24:03.219Z,102009.31
2022-11-29T23:26:40.116Z,102051.09
2022-11-29T23:29:12.776Z,102052.19
2022-11-29T23:31:40.502Z,102020.84
2022-11-29T23:34:07.832Z,102011.88
2022-11-29T23:36:35.862Z,102052.53
2022-11-29T23:39:07.215Z,102048.88
2022-11-29T23:41:37.697Z,102047.75
2022-11-29T23:44:05.540Z,102048.09
2022-11-29T23:46:32.750Z,102011.22
2022-11-29T23:48:59.778Z,102037.78
2022-11-29T23:51:26.888Z,102030.50
2022-11-29T23:53:55.694Z,102003.13
2022-11-29T23:56:22.952Z,102029.19
2022-11-29T23:58:50.222Z,102029.00
